Time;durP1;ratioP1;P1;durP2;ratioP2;P2;SDS_P1;SDS_P2;PMS_P1;PMS_P2;Temp;Humidity;BMP_temperature;BMP_pressure;BME280_temperature;BME280_humidity;BME280_pressure;Samples;Min_cycle;Max_cycle;Signal;HPM_P1;HPM_P2
2022/08/26 00:00:45;;;;;;;7.72;3.25;;;;;;;28.04;42.32;98959.09;5070484;28;20028;-43
2022/08/26 00:03:12;;;;;;;19.85;3.60;;;;;;;28.17;42.14;98959.16;5070660;28;20036;-44
2022/08/26 00:05:38;;;;;;;12.23;3.30;;;;;;;28.20;42.02;98933.88;5070413;28;20035;-43
2022/08/26 00:08:05;;;;;;;14.80;3.45;;;;;;;28.13;41.93;98930.88;5070240;28;20028;-43
2022/08/26 00:10:31;;;;;;;16.08;3.50;;;;;;;27.65;43.29;98935.88;5069847;28;20032;-45
2022/08/26 00:12:57;;;;;;;15.93;3.78;;;;;;;27.68;43.51;98937.91;5070297;28;20029;-43
2022/08/26 00:15:23;;;;;;;17.25;3.58;;;;;;;27.97;42.72;98936.19;5065190;28;20048;-43
2022/08/26 00:17:50;;;;;;;12.48;3.20;;;;;;;28.04;42.48;98936.44;5052246;28;20135;-43
2022/08/26 00:20:20;;;;;;;18.73;3.72;;;;;;;27.95;42.78;98950.22;5053914;28;20025;-43
2022/08/26 00:22:45;;;;;;;15.25;3.30;;;;;;;27.58;43.23;98950.06;5052895;28;20050;-42
2022/08/26 00:25:12;;;;;;;14.65;3.25;;;;;;;27.69;43.43;98953.19;5054368;28;20028;-44
2022/08/26 00:27:38;;;;;;;18.75;3.90;;;;;;;27.78;43.04;98945.72;5054012;28;20107;-44
2022/08/26 00:30:07;;;;;;;11.25;3.30;;;;;;;27.92;42.94;98950.91;5053868;28;20025;-42
2022/08/26 00:32:33;;;;;;;13.60;3.45;;;;;;;27.99;42.78;98951.16;5054249;28;20040;-45
2022/08/26 00:34:58;;;;;;;16.00;3.13;;;;;;;28.00;42.43;98950.00;5054041;28;20029;-42
2022/08/26 00:37:24;;;;;;;14.85;3.80;;;;;;;28.08;42.43;98951.84;5053730;28;20479;-43
2022/08/26 00:39:49;;;;;;;18.80;3.30;;;;;;;28.07;42.51;98950.25;5054047;28;20044;-46
2022/08/26 00:42:15;;;;;;;12.80;3.70;;;;;;;28.03;42.73;98956.75;5053617;28;20029;-42
2022/08/26 00:44:40;;;;;;;18.52;3.47;;;;;;;28.00;42.90;98952.72;5054026;28;20402;-43
2022/08/26 00:47:11;;;;;;;15.18;3.25;;;;;;;28.08;42.84;98949.13;5053819;28;20063;-43
2022/08/26 00:49:41;;;;;;;13.00;3.33;;;;;;;28.00;42.77;98941.78;5054090;28;20025;-43
2022/08/26 00:52:14;;;;;;;15.13;3.40;;;;;;;28.21;42.28;98943.66;5053733;28;20040;-42
2022/08/26 00:54:45;;;;;;;14.23;3.40;;;;;;;27.77;43.34;98943.31;5053912;28;20064;-43
2022/08/26 00:57:15;;;;;;;16.90;3.58;;;;;;;27.98;42.63;98944.06;5070496;28;20028;-44
2022/08/26 00:59:41;;;;;;;12.77;3.30;;;;;;;28.03;42.54;98943.06;5074109;28;20035;-43
2022/08/26 01:02:07;;;;;;;9.23;3.22;;;;;;;28.07;42.18;98939.31;5073660;28;20040;-44
2022/08/26 01:04:35;;;;;;;15.60;3.63;;;;;;;28.16;42.08;98947.41;5073200;28;20040;-43
2022/08/26 01:07:01;;;;;;;13.02;3.58;;;;;;;28.11;42.30;98949.56;5073667;28;20032;-45
2022/08/26 01:09:27;;;;;;;21.92;3.42;;;;;;;28.11;42.46;98947.63;5073570;28;20085;-46
2022/08/26 01:11:55;;;;;;;18.00;3.33;;;;;;;28.08;42.17;98949.13;5073687;28;20107;-45
2022/08/26 01:14:24;;;;;;;14.65;3.35;;;;;;;28.03;42.40;98946.59;5073405;28;20048;-43
2022/08/26 01:16:49;;;;;;;23.92;4.13;;;;;;;28.17;41.98;98938.06;5056165;28;20057;-44
2022/08/26 01:19:22;;;;;;;12.38;3.17;;;;;;;27.97;42.52;98947.94;5053347;28;20036;-43
2022/08/26 01:21:56;;;;;;;16.30;3.35;;;;;;;27.66;43.54;98942.94;5053478;28;20161;-43
2022/08/26 01:24:24;;;;;;;13.07;3.45;;;;;;;27.64;44.12;98945.19;5053149;28;20024;-42
2022/08/26 01:26:51;;;;;;;13.77;3.75;;;;;;;27.56;44.49;98938.69;5053116;28;20420;-42
2022/08/26 01:29:18;;;;;;;17.08;3.40;;;;;;;27.48;44.69;98937.63;5052442;28;20029;-45
2022/08/26 01:31:53;;;;;;;14.82;3.28;;;;;;;27.70;43.94;98932.91;5053234;28;20059;-43
2022/08/26 01:34:21;;;;;;;17.10;3.42;;;;;;;27.62;43.88;98931.88;5053049;28;20485;-42
2022/08/26 01:36:49;;;;;;;10.45;3.08;;;;;;;27.38;44.34;98924.41;5052951;28;20047;-44
2022/08/26 01:39:15;;;;;;;11.05;3.30;;;;;;;27.40;44.04;98911.22;5053162;28;20024;-45
2022/08/26 01:41:41;;;;;;;18.08;3.50;;;;;;;27.56;43.73;98911.38;5053197;28;20021;-41
2022/08/26 01:44:11;;;;;;;15.00;3.25;;;;;;;27.63;43.67;98921.75;5053317;28;20119;-42
2022/08/26 01:46:37;;;;;;;15.48;3.42;;;;;;;27.65;43.34;98928.47;5052406;28;20469;-43
2022/08/26 01:49:05;;;;;;;16.83;3.45;;;;;;;27.66;43.47;98926.53;5053258;28;20032;-42
2022/08/26 01:51:35;;;;;;;22.75;3.95;;;;;;;27.65;43.46;98914.81;5052784;28;20029;-37
2022/08/26 01:54:02;;;;;;;16.98;3.67;;;;;;;27.64;43.32;98924.13;5052991;28;20135;-37
2022/08/26 01:56:28;;;;;;;10.65;3.40;;;;;;;27.39;43.83;98934.19;5062726;28;20024;-37
2022/08/26 01:58:58;;;;;;;12.13;3.85;;;;;;;27.26;44.13;98925.16;5071887;28;20112;-37
2022/08/26 02:01:25;;;;;;;19.55;3.67;;;;;;;27.55;43.45;98933.56;5072490;28;20158;-37
2022/08/26 02:04:05;;;;;;;13.25;3.40;;;;;;;27.53;43.34;98930.34;5072658;28;20027;-37
2022/08/26 02:06:30;;;;;;;;;;;;;;;27.54;43.50;98929.25;5072611;28;20580;-37
2022/08/26 02:09:00;;;;;;;13.82;3.55;;;;;;;27.45;43.96;98937.50;5072509;28;19918;-43
2022/08/26 02:11:25;;;;;;;18.23;3.70;;;;;;;27.28;44.40;98935.72;5072487;28;20028;-44
2022/08/26 02:13:56;;;;;;;20.95;4.07;;;;;;;27.24;43.91;98941.03;5072040;28;20047;-44
2022/08/26 02:16:25;;;;;;;24.20;4.18;;;;;;;27.29;43.96;98946.31;5058997;28;20045;-43
2022/08/26 02:18:52;;;;;;;16.08;3.50;;;;;;;27.28;44.25;98944.72;5051841;28;20033;-42
2022/08/26 02:21:18;;;;;;;19.42;3.67;;;;;;;27.22;44.53;98939.75;5052160;28;20105;-42
2022/08/26 02:23:43;;;;;;;14.35;3.40;;;;;;;27.32;44.17;98941.31;5052350;28;20436;-42
2022/08/26 02:26:16;;;;;;;14.63;3.90;;;;;;;27.29;44.05;98940.06;5052253;28;20029;-42
2022/08/26 02:29:05;;;;;;;18.83;3.72;;;;;;;27.25;44.36;98934.47;5051748;28;20028;-44
2022/08/26 02:31:31;;;;;;;14.20;3.45;;;;;;;27.37;44.43;98939.19;5052019;28;20605;-43
2022/08/26 02:34:13;;;;;;;10.55;3.38;;;;;;;27.20;44.80;98934.63;5051965;28;20021;-42
2022/08/26 02:36:40;;;;;;;16.15;3.85;;;;;;;27.10;44.87;98933.09;5051902;28;20092;-43
2022/08/26 02:39:06;;;;;;;16.55;3.42;;;;;;;27.26;44.26;98925.16;5051189;28;20702;-44
2022/08/26 02:41:33;;;;;;;13.82;3.35;;;;;;;27.25;44.29;98929.00;5051345;28;20082;-43
2022/08/26 02:43:59;;;;;;;14.25;4.00;;;;;;;27.07;44.61;98916.59;5051813;28;20060;-44
2022/08/26 02:46:25;;;;;;;20.05;3.47;;;;;;;26.97;44.68;98912.34;5051682;28;20032;-46
2022/08/26 02:48:51;;;;;;;19.65;3.60;;;;;;;26.91;45.20;98922.66;5051585;28;20024;-43
2022/08/26 02:51:16;;;;;;;12.80;3.40;;;;;;;27.04;44.64;98918.06;5051803;28;20024;-44
2022/08/26 02:53:42;;;;;;;19.25;3.70;;;;;;;26.96;44.55;98918.13;5051893;28;20132;-43
2022/08/26 02:56:08;;;;;;;15.48;4.00;;;;;;;26.77;44.73;98924.03;5051780;28;20017;-44
2022/08/26 02:58:34;;;;;;;14.98;3.55;;;;;;;26.82;44.76;98921.91;5051438;28;20017;-43
2022/08/26 03:00:59;;;;;;;17.15;3.70;;;;;;;26.87;44.80;98929.13;5051223;28;20043;-45
2022/08/26 03:03:25;;;;;;;20.92;4.15;;;;;;;26.95;44.91;98924.72;5051609;28;20435;-42
2022/08/26 03:05:51;;;;;;;18.08;3.90;;;;;;;26.95;44.80;98936.44;5051490;28;20211;-42
2022/08/26 03:08:17;;;;;;;20.40;3.50;;;;;;;26.90;44.61;98936.63;5051224;28;20894;-41
2022/08/26 03:10:42;;;;;;;16.17;3.42;;;;;;;26.97;44.22;98933.38;5050922;28;20021;-44
2022/08/26 03:13:08;;;;;;;16.73;3.42;;;;;;;26.96;44.33;98923.56;5051527;28;20052;-42
2022/08/26 03:15:34;;;;;;;15.82;3.80;;;;;;;26.80;44.26;98918.72;5051262;28;20049;-42
2022/08/26 03:17:59;;;;;;;22.90;3.88;;;;;;;26.80;44.72;98923.38;5051453;28;20526;-42
2022/08/26 03:20:24;;;;;;;17.63;3.80;;;;;;;26.74;44.80;98917.31;5051301;28;20033;-42
2022/08/26 03:22:52;;;;;;;20.30;3.63;;;;;;;26.74;44.51;98922.78;5050866;28;20117;-43
2022/08/26 03:25:19;;;;;;;14.55;3.40;;;;;;;26.82;44.23;98927.38;5051242;28;20537;-44
2022/08/26 03:27:44;;;;;;;17.75;4.00;;;;;;;26.94;44.44;98925.84;5050681;28;20071;-43
2022/08/26 03:32:56;;;;;;;15.93;3.60;;;;;;;26.84;44.83;98936.00;5050936;28;20103;-43
2022/08/26 03:35:21;;;;;;;19.92;5.13;;;;;;;26.84;45.16;98940.69;5051096;28;20131;-42
2022/08/26 03:37:47;;;;;;;22.70;5.93;;;;;;;26.71;45.13;98923.41;5051100;28;20048;-43
2022/08/26 03:40:12;;;;;;;16.80;4.32;;;;;;;26.82;44.75;98926.56;5050859;28;20361;-36
2022/08/26 03:42:40;;;;;;;19.98;9.18;;;;;;;26.80;44.77;98926.91;5050773;28;20097;-37
2022/08/26 03:45:07;;;;;;;25.25;8.65;;;;;;;26.86;44.63;98936.47;5050875;28;20021;-37
2022/08/26 03:47:33;;;;;;;18.73;4.05;;;;;;;26.79;44.67;98936.22;5050880;28;20082;-37
2022/08/26 03:49:59;;;;;;;12.93;3.85;;;;;;;26.84;44.73;98932.50;5050695;28;20100;-37
2022/08/26 03:52:25;;;;;;;19.48;4.18;;;;;;;26.71;44.77;98934.34;5050782;28;20372;-37
2022/08/26 03:54:50;;;;;;;16.13;3.95;;;;;;;26.69;44.63;98933.88;5050258;28;20035;-37
2022/08/26 03:57:16;;;;;;;15.38;3.67;;;;;;;26.70;44.62;98927.28;5068382;28;20177;-37
2022/08/26 03:59:41;;;;;;;15.27;3.95;;;;;;;26.64;44.88;98934.09;5070772;28;20411;-37
2022/08/26 04:02:07;;;;;;;14.80;3.65;;;;;;;26.78;44.65;98931.88;5070561;28;20027;-37
2022/08/26 04:04:33;;;;;;;21.13;4.05;;;;;;;26.78;44.20;98929.16;5070158;28;20104;-37
2022/08/26 04:06:59;;;;;;;21.73;3.83;;;;;;;26.57;44.68;98926.38;5070559;28;20021;-37
2022/08/26 04:09:26;;;;;;;13.90;3.40;;;;;;;26.42;45.17;98924.22;5070352;28;20397;-37
2022/08/26 04:11:52;;;;;;;21.27;4.10;;;;;;;26.50;44.46;98916.00;5070491;28;20024;-37
2022/08/26 04:14:20;;;;;;;32.72;19.25;;;;;;;26.67;44.14;98915.13;5069904;28;20031;-37
2022/08/26 04:16:47;;;;;;;26.05;11.00;;;;;;;26.63;43.85;98918.81;5052436;28;20128;-37
2022/08/26 04:19:14;;;;;;;22.70;4.43;;;;;;;26.71;43.79;98928.88;5044044;28;20027;-37
2022/08/26 04:21:40;;;;;;;20.42;4.03;;;;;;;26.78;43.61;98926.44;5049969;28;20473;-37
2022/08/26 04:24:08;;;;;;;25.45;4.43;;;;;;;26.92;43.34;98932.44;5049818;28;20029;-38
2022/08/26 04:26:36;;;;;;;16.50;4.00;;;;;;;26.83;43.50;98937.16;5049435;28;20033;-37
2022/08/26 04:29:07;;;;;;;22.42;3.97;;;;;;;26.92;43.16;98937.91;5049649;28;20104;-36
2022/08/26 04:31:34;;;;;;;14.18;3.80;;;;;;;27.09;42.88;98936.16;5049691;28;20083;-36
2022/08/26 04:34:00;;;;;;;11.77;3.45;;;;;;;26.96;42.89;98931.75;5049723;28;20025;-37
2022/08/26 04:36:26;;;;;;;15.20;3.70;;;;;;;27.09;42.94;98936.16;5049277;28;20025;-37
2022/08/26 04:38:51;;;;;;;20.70;3.72;;;;;;;27.07;42.63;98930.25;5049785;28;20170;-37
2022/08/26 04:41:21;;;;;;;17.83;3.55;;;;;;;27.07;42.65;98932.97;5049475;28;20025;-37
2022/08/26 04:43:47;;;;;;;15.02;3.90;;;;;;;27.17;42.37;98937.22;5049676;28;20171;-37
2022/08/26 04:46:18;;;;;;;18.02;3.85;;;;;;;27.30;42.36;98934.28;5049431;28;20108;-37
2022/08/26 04:48:43;;;;;;;18.63;4.05;;;;;;;27.25;42.43;98934.47;5049347;28;20047;-37
2022/08/26 04:51:09;;;;;;;20.25;8.07;;;;;;;27.61;41.86;98934.97;5049574;28;20552;-37
2022/08/26 04:53:35;;;;;;;19.58;5.43;;;;;;;27.54;42.07;98937.44;5049451;28;20036;-36
2022/08/26 04:56:01;;;;;;;15.02;3.95;;;;;;;27.70;42.16;98938.38;5047633;28;20021;-36
2022/08/26 04:58:26;;;;;;;18.83;3.95;;;;;;;27.64;42.19;98928.81;5048994;28;20013;-36
2022/08/26 05:00:54;;;;;;;21.40;4.00;;;;;;;27.65;42.05;98939.41;5049322;28;20461;-36
2022/08/26 05:03:20;;;;;;;27.75;13.55;;;;;;;27.91;41.29;98930.16;5050683;28;20091;-37
2022/08/26 05:05:48;;;;;;;19.38;4.40;;;;;;;27.90;41.13;98936.78;5052836;28;20033;-37
2022/08/26 05:08:15;;;;;;;18.95;4.40;;;;;;;27.86;41.15;98942.06;5052984;28;20025;-37
2022/08/26 05:10:47;;;;;;;15.43;6.15;;;;;;;27.99;40.86;98936.69;5052215;28;20036;-37
2022/08/26 05:13:14;;;;;;;20.80;9.18;;;;;;;28.05;40.24;98943.53;5051844;28;20029;-37
2022/08/26 05:15:39;;;;;;;18.50;4.30;;;;;;;28.12;40.64;98951.16;5051136;28;20041;-37
2022/08/26 05:18:06;;;;;;;14.80;4.93;;;;;;;28.29;40.74;98956.41;5050769;28;20116;-37
2022/08/26 05:20:37;;;;;;;27.25;12.85;;;;;;;28.20;40.45;98948.31;5049344;28;20029;-36
2022/08/26 05:23:03;;;;;;;21.33;5.55;;;;;;;28.77;39.12;98963.06;5040448;28;20035;-37
2022/08/26 05:25:29;;;;;;;18.02;4.10;;;;;;;28.18;40.46;98955.25;5052403;28;20033;-39
2022/08/26 05:27:55;;;;;;;18.58;4.88;;;;;;;28.10;41.03;98964.38;5052513;28;20414;-37
2022/08/26 05:30:20;;;;;;;20.90;7.38;;;;;;;28.27;40.20;98951.31;5052335;28;20025;-37
2022/08/26 05:32:48;;;;;;;22.77;5.03;;;;;;;28.63;40.76;98962.59;5052564;28;20025;-37
2022/08/26 05:35:14;;;;;;;22.38;4.22;;;;;;;28.73;39.15;98955.88;5052326;28;20373;-37
2022/08/26 05:37:41;;;;;;;19.92;4.38;;;;;;;28.95;39.38;98963.59;5052521;28;20052;-36
2022/08/26 05:40:07;;;;;;;15.95;4.07;;;;;;;28.65;39.41;98961.13;5051933;28;20052;-37
2022/08/26 05:42:32;;;;;;;13.82;4.10;;;;;;;28.66;39.74;98970.94;5052112;28;20016;-37
2022/08/26 05:44:58;;;;;;;15.63;3.70;;;;;;;28.73;39.57;98966.81;5052293;28;20468;-37
2022/08/26 05:47:24;;;;;;;19.38;4.20;;;;;;;28.91;39.46;98968.16;5051841;28;20465;-37
2022/08/26 05:49:49;;;;;;;19.73;3.95;;;;;;;29.11;38.83;98971.09;5052438;28;20460;-38
2022/08/26 05:52:15;;;;;;;13.50;3.60;;;;;;;28.62;39.75;98980.19;5051928;28;20112;-38
2022/08/26 05:54:40;;;;;;;15.27;3.70;;;;;;;28.71;40.40;98978.13;5050160;28;20115;-36
2022/08/26 05:57:06;;;;;;;14.85;3.75;;;;;;;29.03;38.94;98972.81;5051388;28;20025;-42
2022/08/26 05:59:31;;;;;;;19.20;3.63;;;;;;;29.60;38.00;98979.97;5059287;28;20053;-44
2022/08/26 06:01:57;;;;;;;23.73;4.10;;;;;;;29.48;37.59;98993.72;5049392;28;20373;-44
2022/08/26 06:04:26;;;;;;;20.63;4.15;;;;;;;29.03;38.96;98997.47;5051650;28;20033;-42
2022/08/26 06:06:51;;;;;;;13.85;3.25;;;;;;;28.98;38.87;98989.50;5051389;28;20080;-45
2022/08/26 06:09:17;;;;;;;22.02;3.78;;;;;;;29.08;38.50;98994.50;5052136;28;20401;-44
2022/08/26 06:11:42;;;;;;;16.33;3.70;;;;;;;29.26;38.37;98980.56;5050938;28;20385;-46
2022/08/26 06:14:08;;;;;;;20.38;3.67;;;;;;;29.44;37.37;98993.63;5051468;28;20193;-43
2022/08/26 06:16:37;;;;;;;16.27;3.40;;;;;;;29.27;37.56;98984.91;5051136;28;20408;-43
2022/08/26 06:19:05;;;;;;;14.90;3.50;;;;;;;29.00;38.31;98987.22;5051336;28;20083;-46
2022/08/26 06:21:37;;;;;;;16.88;3.85;;;;;;;28.82;38.95;98992.91;5051363;28;20017;-45
2022/08/26 06:26:52;;;;;;;21.85;3.75;;;;;;;29.44;37.60;98993.63;5051714;28;20036;-38
2022/08/26 06:29:21;;;;;;;17.70;3.60;;;;;;;29.15;38.53;99002.97;5051129;28;20107;-38
2022/08/26 06:31:47;;;;;;;13.18;3.33;;;;;;;29.08;38.81;99008.19;5051487;28;20032;-37
2022/08/26 06:34:13;;;;;;;15.00;3.85;;;;;;;28.90;39.09;99017.78;5050945;28;20025;-38
2022/08/26 06:36:40;;;;;;;17.55;4.15;;;;;;;29.04;38.39;99013.56;5050390;28;20525;-38
2022/08/26 06:39:08;;;;;;;19.48;6.35;;;;;;;29.53;37.70;99034.59;5050140;28;20029;-38
2022/08/26 06:41:34;;;;;;;16.83;4.15;;;;;;;29.53;37.83;99026.38;5050161;28;20029;-36
2022/08/26 06:44:01;;;;;;;19.38;4.18;;;;;;;29.18;38.21;99029.66;5049352;28;20447;-37
2022/08/26 06:46:28;;;;;;;16.88;3.95;;;;;;;29.27;37.90;99029.53;5050009;28;20082;-37
2022/08/26 06:48:54;;;;;;;18.73;3.55;;;;;;;29.39;38.18;99036.91;5050213;28;20087;-37
2022/08/26 06:51:25;;;;;;;18.08;4.30;;;;;;;29.63;37.43;99027.84;5050793;28;20108;-37
2022/08/26 06:53:53;;;;;;;18.40;4.40;;;;;;;29.32;37.52;99034.78;5050694;28;20373;-37
2022/08/26 06:56:24;;;;;;;18.67;3.90;;;;;;;29.42;36.91;99041.72;5050413;28;20551;-37
2022/08/26 06:58:50;;;;;;;20.50;3.67;;;;;;;29.41;37.33;99031.88;5050905;28;20039;-37
2022/08/26 07:01:30;;;;;;;17.08;3.70;;;;;;;29.31;37.73;99035.13;5051109;28;20016;-38
2022/08/26 07:03:58;;;;;;;18.00;3.75;;;;;;;29.49;37.75;99032.88;5050646;28;20428;-47
2022/08/26 07:06:26;;;;;;;18.75;3.22;;;;;;;29.67;37.46;99042.44;5050686;28;20016;-36
2022/08/26 07:09:00;;;;;;;15.83;4.00;;;;;;;29.92;36.72;99042.38;5050667;28;20498;-45
2022/08/26 07:11:26;;;;;;;18.20;3.85;;;;;;;30.21;35.94;99047.47;5050319;28;20338;-42
2022/08/26 07:13:52;;;;;;;20.55;3.58;;;;;;;30.21;36.10;99042.00;5050314;28;20422;-44
2022/08/26 07:16:17;;;;;;;19.00;3.70;;;;;;;30.25;36.21;99039.31;5049639;28;20124;-43
2022/08/26 07:18:44;;;;;;;16.95;3.58;;;;;;;30.25;35.94;99044.81;5050077;28;20163;-44
2022/08/26 07:21:14;;;;;;;16.35;3.75;;;;;;;30.35;36.25;99046.28;5050147;28;20021;-44
2022/08/26 07:23:40;;;;;;;14.50;3.55;;;;;;;30.59;35.73;99043.34;5050346;28;20076;-37
2022/08/26 07:26:09;;;;;;;18.95;3.45;;;;;;;30.83;35.35;99040.78;5049905;28;20500;-37
2022/08/26 07:28:35;;;;;;;16.33;3.63;;;;;;;31.14;34.67;99043.47;5049835;28;20029;-37
2022/08/26 07:31:21;;;;;;;15.70;3.65;;;;;;;31.53;34.67;99046.34;5050007;28;20029;-38
2022/08/26 07:33:47;;;;;;;16.42;3.90;;;;;;;31.04;34.80;99046.81;5050225;28;20025;-37
2022/08/26 07:36:13;;;;;;;15.82;3.67;;;;;;;31.01;35.62;99054.97;5049727;28;20037;-37
2022/08/26 07:38:39;;;;;;;15.07;3.67;;;;;;;30.83;35.04;99046.28;5049854;28;20104;-35
2022/08/26 07:41:06;;;;;;;15.70;3.50;;;;;;;30.80;35.24;99040.31;5050108;28;20120;-37
2022/08/26 07:43:33;;;;;;;17.38;3.83;;;;;;;31.10;35.20;99042.63;5049870;28;20055;-38
2022/08/26 07:45:58;;;;;;;19.70;3.65;;;;;;;31.05;34.96;99042.09;5049635;28;20025;-35
2022/08/26 07:48:23;;;;;;;12.57;3.70;;;;;;;31.08;35.58;99035.91;5049522;28;20115;-35
2022/08/26 07:50:49;;;;;;;17.52;4.38;;;;;;;30.67;36.51;99043.53;5049646;28;20073;-36
2022/08/26 07:53:16;;;;;;;18.08;4.40;;;;;;;30.73;36.41;99047.59;5049080;28;20024;-36
2022/08/26 07:55:41;;;;;;;10.15;4.03;;;;;;;30.92;36.21;99036.72;5048691;28;20021;-37
2022/08/26 07:58:07;;;;;;;13.18;3.53;;;;;;;31.01;35.31;99042.00;5049003;28;20062;-37
2022/08/26 08:00:33;;;;;;;15.55;3.83;;;;;;;31.87;34.56;99040.31;5048634;28;20033;-37
2022/08/26 08:03:04;;;;;;;26.00;4.00;;;;;;;31.43;35.57;99043.31;5048976;28;20397;-37
2022/08/26 08:05:31;;;;;;;19.45;3.88;;;;;;;31.23;35.87;99042.50;5049967;28;20292;-44
2022/08/26 08:07:57;;;;;;;20.92;3.85;;;;;;;31.02;35.47;99029.88;5045467;28;20473;-43
2022/08/26 08:10:37;;;;;;;;;;;;;;;;;;;;;
2022/08/26 08:13:05;;;;;;;17.13;3.95;;;;;;;31.37;35.39;99040.84;5043601;28;20037;-43
2022/08/26 08:15:33;;;;;;;13.77;3.78;;;;;;;31.50;35.49;99043.50;5037783;28;20068;-45
2022/08/26 08:17:59;;;;;;;17.75;4.30;;;;;;;31.29;35.94;99044.59;5030222;28;20034;-44
2022/08/26 08:20:25;;;;;;;13.55;3.92;;;;;;;31.06;36.22;99044.50;5029073;28;20032;-43
2022/08/26 08:22:52;;;;;;;29.08;10.93;;;;;;;30.94;36.47;99041.88;5029847;28;20033;-44
2022/08/26 08:25:18;;;;;;;19.73;4.82;;;;;;;31.26;35.54;99044.53;5029802;28;20033;-45
2022/08/26 08:27:49;;;;;;;13.90;3.60;;;;;;;30.73;35.54;99042.09;5029169;28;20025;-43
2022/08/26 08:30:18;;;;;;;14.55;3.50;;;;;;;30.88;35.93;99045.97;5029616;28;20030;-43
2022/08/26 08:32:43;;;;;;;13.73;3.75;;;;;;;31.10;35.79;99056.34;5028257;28;20508;-43
2022/08/26 08:35:12;;;;;;;17.77;3.72;;;;;;;31.05;36.01;99042.09;5028376;28;20163;-43
2022/08/26 08:37:39;;;;;;;27.65;3.80;;;;;;;30.90;36.50;99049.19;5044787;28;20032;-42
2022/08/26 08:40:07;;;;;;;16.95;3.75;;;;;;;30.83;35.96;99052.56;5053197;28;20020;-43
2022/08/26 08:42:52;;;;;;;14.27;4.03;;;;;;;31.07;36.68;99045.28;5052827;28;20078;-44
2022/08/26 08:45:37;;;;;;;14.43;3.97;;;;;;;31.35;36.41;99050.63;5053577;28;20033;-44
2022/08/26 08:48:04;;;;;;;19.23;4.47;;;;;;;31.64;35.96;99043.78;5051883;28;20035;-44
2022/08/26 08:50:34;;;;;;;19.52;3.90;;;;;;;32.00;35.74;99032.69;5053237;28;20029;-43
2022/08/26 08:53:21;;;;;;;16.10;3.58;;;;;;;32.44;34.05;99041.34;5053030;28;20025;-44
2022/08/26 08:56:24;;;;;;;17.65;3.70;;;;;;;32.31;34.04;99039.94;5056502;28;20421;-45
2022/08/26 08:59:06;;;;;;;18.73;3.70;;;;;;;32.52;33.55;99040.34;5071551;28;20028;-44
2022/08/26 09:01:50;;;;;;;11.68;3.28;;;;;;;32.90;33.20;99044.13;5071010;28;20024;-46
2022/08/26 09:04:22;;;;;;;13.90;3.63;;;;;;;32.93;33.10;99043.34;5071247;28;20024;-44
2022/08/26 09:06:51;;;;;;;13.73;3.60;;;;;;;32.72;31.96;99035.56;5071568;28;20112;-44
2022/08/26 09:09:26;;;;;;;;;;;;;;;32.58;32.50;99042.78;5072436;28;20024;-46
2022/08/26 09:11:55;;;;;;;19.75;3.92;;;;;;;32.79;31.87;99034.09;5073326;28;19920;-43
2022/08/26 09:14:21;;;;;;;12.52;3.97;;;;;;;32.95;31.75;99040.25;5073090;28;20103;-46
2022/08/26 09:16:55;;;;;;;13.43;3.35;;;;;;;32.88;31.44;99038.19;5072804;28;20149;-44
2022/08/26 09:19:39;;;;;;;20.02;4.70;;;;;;;33.05;31.53;99038.81;5073332;28;20107;-42
2022/08/26 09:22:04;;;;;;;13.60;3.70;;;;;;;32.87;31.52;99038.56;5073069;28;20028;-43
2022/08/26 09:24:34;;;;;;;22.50;4.70;;;;;;;32.80;30.44;99036.47;5072602;28;20059;-44
2022/08/26 09:27:00;;;;;;;16.10;3.50;;;;;;;33.03;31.38;99038.38;5072452;28;20021;-43
2022/08/26 09:29:29;;;;;;;17.05;3.95;;;;;;;32.83;30.18;99032.97;5072284;28;20024;-44
2022/08/26 09:32:20;;;;;;;16.98;5.22;;;;;;;33.05;31.34;99042.38;5072497;28;20103;-44
2022/08/26 09:35:02;;;;;;;22.23;3.90;;;;;;;32.85;29.49;99038.13;5072339;28;20109;-45
2022/08/26 09:37:44;;;;;;;13.15;3.60;;;;;;;32.90;28.32;99035.03;5072379;28;20060;-43
2022/08/26 09:40:15;;;;;;;16.27;4.03;;;;;;;33.06;28.55;99030.16;5072410;28;20052;-45
2022/08/26 09:42:40;;;;;;;13.57;3.90;;;;;;;33.03;28.21;99027.34;5072102;28;20029;-45
2022/08/26 09:45:09;;;;;;;15.35;3.80;;;;;;;32.98;28.69;99031.25;5072000;28;20078;-43
2022/08/26 09:47:40;;;;;;;15.57;4.05;;;;;;;33.33;28.04;99032.13;5071875;28;20036;-46
2022/08/26 09:50:17;;;;;;;15.77;3.88;;;;;;;33.34;28.58;99036.47;5070947;28;20123;-44
2022/08/26 09:52:43;;;;;;;9.75;3.70;;;;;;;33.41;27.94;99042.09;5071959;28;20108;-43
2022/08/26 09:55:08;;;;;;;18.45;3.88;;;;;;;33.48;28.02;99037.44;5072254;28;20507;-43
2022/08/26 09:57:43;;;;;;;12.00;4.10;;;;;;;33.32;28.55;99047.88;5072049;28;20028;-43
2022/08/26 10:00:34;;;;;;;17.27;3.65;;;;;;;33.25;28.55;99042.28;5072295;28;20028;-42
2022/08/26 10:03:05;;;;;;;16.02;3.88;;;;;;;33.06;27.57;99046.69;5066039;28;20048;-44
2022/08/26 10:05:53;;;;;;;24.15;4.15;;;;;;;33.21;26.97;99046.94;5072147;28;20032;-43
2022/08/26 10:08:30;;;;;;;14.70;4.10;;;;;;;33.35;28.95;99047.13;5070998;28;20028;-46
2022/08/26 10:11:00;;;;;;;12.63;4.40;;;;;;;33.27;29.30;99050.97;5071581;28;20078;-44
2022/08/26 10:13:31;;;;;;;14.32;4.25;;;;;;;33.21;28.59;99044.19;5071681;28;20399;-46
2022/08/26 10:16:17;;;;;;;15.38;4.43;;;;;;;33.45;28.37;99043.72;5071367;28;20080;-45
2022/08/26 10:18:55;;;;;;;18.60;3.85;;;;;;;33.39;26.84;99039.69;5071565;28;20048;-46
2022/08/26 10:21:29;;;;;;;12.77;3.55;;;;;;;33.53;27.23;99050.13;5071915;28;20060;-44
2022/08/26 10:23:58;;;;;;;21.73;4.40;;;;;;;33.70;26.12;99040.53;5071199;28;20024;-46
2022/08/26 10:26:37;;;;;;;20.27;3.75;;;;;;;33.70;26.27;99043.28;5071164;28;20539;-42
2022/08/26 10:29:14;;;;;;;15.35;4.30;;;;;;;33.96;26.24;99053.41;5070964;28;20445;-47
2022/08/26 10:31:46;;;;;;;19.33;3.67;;;;;;;33.54;23.90;99048.94;5071062;28;20506;-42
2022/08/26 10:34:12;;;;;;;16.48;3.75;;;;;;;33.16;25.01;99050.00;5065493;28;20032;-47
2022/08/26 10:36:48;;;;;;;16.15;3.70;;;;;;;33.30;24.43;99059.28;5049660;28;20021;-44
2022/08/26 10:39:28;;;;;;;20.20;4.00;;;;;;;33.24;24.44;99063.53;5050051;28;20055;-46
2022/08/26 10:42:00;;;;;;;12.98;3.40;;;;;;;32.55;24.77;99066.34;5051239;28;20129;-44
2022/08/26 10:44:29;;;;;;;18.23;3.78;;;;;;;32.46;25.10;99060.28;5048964;28;20049;-42
2022/08/26 10:47:04;;;;;;;13.35;3.55;;;;;;;31.47;25.97;99063.44;5049721;28;20016;-42
2022/08/26 10:49:30;;;;;;;20.13;3.85;;;;;;;31.41;26.13;99060.16;5060452;28;20036;-43
2022/08/26 10:52:16;;;;;;;16.98;3.63;;;;;;;31.70;26.75;99061.59;5058704;28;20025;-42
2022/08/26 10:54:42;;;;;;;16.65;3.40;;;;;;;31.46;27.11;99056.34;5058599;28;20029;-42
2022/08/26 10:57:26;;;;;;;14.60;3.97;;;;;;;31.63;27.25;99063.41;5058727;28;20086;-44
2022/08/26 11:02:56;;;;;;;15.88;3.60;;;;;;;32.29;27.03;99061.53;5048345;28;20369;-37
2022/08/26 11:05:22;;;;;;;19.75;3.67;;;;;;;32.46;26.43;99054.75;5050150;28;20025;-36
2022/08/26 11:08:18;;;;;;;12.73;3.85;;;;;;;32.47;25.96;99050.88;5049934;28;20017;-36
2022/08/26 11:10:52;;;;;;;13.85;3.78;;;;;;;32.61;25.88;99053.88;5048536;28;20029;-36
2022/08/26 11:13:18;;;;;;;14.77;3.75;;;;;;;32.68;25.96;99040.22;5048428;28;20021;-36
2022/08/26 11:15:52;;;;;;;16.17;3.67;;;;;;;32.83;25.83;99048.72;5050174;28;20120;-36
2022/08/26 11:18:45;;;;;;;11.98;3.30;;;;;;;32.91;26.21;99037.44;5047781;28;20017;-37
2022/08/26 11:22:12;;;;;;;17.80;3.58;;;;;;;32.65;26.45;99046.50;5047189;28;20587;-36
2022/08/26 11:24:51;;;;;;;16.77;3.90;;;;;;;32.17;26.52;99036.97;5035835;28;20108;-37
2022/08/26 11:27:23;;;;;;;11.70;4.22;;;;;;;32.66;26.69;99031.53;5050301;28;20033;-37
2022/08/26 11:30:00;;;;;;;13.35;4.25;;;;;;;32.53;26.89;99032.88;5050261;28;20039;-37
2022/08/26 11:32:38;;;;;;;16.83;4.07;;;;;;;32.59;26.43;99038.88;5050063;28;20059;-37
2022/08/26 11:35:22;;;;;;;19.42;4.50;;;;;;;32.26;26.96;99015.50;5050209;28;20024;-37
2022/08/26 11:37:57;;;;;;;18.88;3.90;;;;;;;32.50;27.50;99033.59;5050528;28;20048;-37
2022/08/26 11:40:27;;;;;;;16.05;4.43;;;;;;;32.25;27.24;99030.41;5050245;28;20028;-36
2022/08/26 11:42:56;;;;;;;14.52;4.18;;;;;;;32.48;26.92;99031.22;5050133;28;20039;-37
2022/08/26 11:45:39;;;;;;;14.88;3.45;;;;;;;32.53;27.31;99036.41;5049901;28;20134;-37